Main page
METAR-TAF:

METAR-TAF

Airports :

Port Moresby, Papua New Guinea

Jacksons International Airport

latitude: 09-26S, longitude: 147-13E, elevation: 38 m

Current weather observation

The report was made 54 minutes ago, at 11:00 UTC
Wind 8 kt from the South/Southeast
Temperature 27°C
Humidity 79%
Pressure 1008 hPa
Visibility 10 km or more
Broken clouds at a height of 4000 ft

METAR: AYPY 201100Z 16008KT 9999 BKN040 27/23 Q1008

Time: 21:54 (11:54 UTC)

Forecast

The report was made 1 hour and 47 minutes ago, at 10:07 UTC
Forecast valid from 20 at 12 UTC to 21 at 12 UTC
Wind 8 kt from the South
Visibility 10 km or more
Scattered clouds at a height of 3500 ft
From 20 at 1800 UTC
Wind kt from the North
Visibility 10 km or more
Broken clouds at a height of 3500 ft

TAF: AYPY 201007Z 2012/2112 17008KT 9999 SCT035 FM201800 00000KT 9999 BKN035

Weather observations and forecasts of more than 4000 airports (METAR and TAF reports).

The available stations are represented by yellow and red dots on the map.

Hover mouse over dot to see the name of the station.

Then click to see weather observations and forecasts.

To change the map : click on the green buttons with a black cross to zoom in, on the green button with a dash to zoom out, or on the green arrows for adjacent maps.


METAR-TAF: